Time;durP1;ratioP1;P1;durP2;ratioP2;P2;SDS_P1;SDS_P2;PMS_P1;PMS_P2;Temp;Humidity;BMP_temperature;BMP_pressure;BME280_temperature;BME280_humidity;BME280_pressure;Samples;Min_cycle;Max_cycle;Signal;HPM_P1;HPM_P2
2023/01/31 00:00:27;;;;;;;;;;;16.20;42.90;;;;;;5192223;27;19928;-65
2023/01/31 00:02:53;;;;;;;;;;;16.30;42.60;;;;;;5172955;27;19922;-65
2023/01/31 00:05:19;;;;;;;;;;;16.60;42.40;;;;;;5192131;27;19925;-65
2023/01/31 00:07:45;;;;;;;;;;;16.70;42.20;;;;;;5173497;27;19967;-65
2023/01/31 00:10:11;;;;;;;;;;;16.90;41.80;;;;;;5173587;27;19918;-66
2023/01/31 00:12:36;;;;;;;;;;;17.10;41.50;;;;;;5191998;27;19918;-66
2023/01/31 00:15:02;;;;;;;;;;;17.30;41.10;;;;;;5160737;27;19919;-66
2023/01/31 00:17:28;;;;;;;;;;;17.50;40.80;;;;;;5177721;27;19922;-65
2023/01/31 00:19:53;;;;;;;;;;;17.70;40.50;;;;;;5178013;27;20354;-66
2023/01/31 00:22:19;;;;;;;;;;;17.90;40.20;;;;;;5159105;27;20018;-65
2023/01/31 00:24:47;;;;;;;;;;;18.00;39.90;;;;;;5158991;27;19964;-65
2023/01/31 00:27:16;;;;;;;;;;;18.10;39.60;;;;;;5177675;27;19926;-65
2023/01/31 00:29:41;;;;;;;;;;;18.20;39.40;;;;;;5177681;27;19926;-66
2023/01/31 00:32:07;;;;;;;;;;;18.20;39.20;;;;;;5158901;27;19975;-66
2023/01/31 00:34:32;;;;;;;;;;;18.20;39.10;;;;;;5159078;27;20001;-66
2023/01/31 00:36:58;;;;;;;;;;;18.10;39.00;;;;;;5177547;27;19926;-65
2023/01/31 00:39:23;;;;;;;;;;;18.10;39.00;;;;;;5158659;27;19925;-68
2023/01/31 00:41:49;;;;;;;;;;;18.00;39.00;;;;;;5158633;27;19929;-67
2023/01/31 00:44:14;;;;;;;;;;;17.90;39.10;;;;;;5158924;27;19925;-66
2023/01/31 00:46:40;;;;;;;;;;;17.90;39.20;;;;;;5141974;27;19923;-67
2023/01/31 00:49:05;;;;;;;;;;;17.80;39.30;;;;;;5156251;27;19926;-66
2023/01/31 00:51:31;;;;;;;;;;;17.70;39.30;;;;;;5137795;27;19964;-66
2023/01/31 00:53:56;;;;;;;;;;;17.60;39.50;;;;;;5137720;27;19927;-65
2023/01/31 00:56:22;;;;;;;;;;;17.50;39.60;;;;;;5138029;27;19923;-65
2023/01/31 00:58:48;;;;;;;;;;;17.40;39.80;;;;;;5137903;27;19919;-66
2023/01/31 01:01:16;;;;;;;;;;;17.30;39.90;;;;;;5156136;27;20356;-66
2023/01/31 01:03:42;;;;;;;;;;;17.30;40.00;;;;;;5133713;27;19962;-67
2023/01/31 01:06:09;;;;;;;;;;;17.20;40.10;;;;;;5134023;27;19976;-68
2023/01/31 01:08:35;;;;;;;;;;;17.20;40.20;;;;;;5135667;27;19926;-66
2023/01/31 01:11:05;;;;;;;;;;;17.10;40.20;;;;;;5135215;27;19920;-68
2023/01/31 01:13:30;;;;;;;;;;;17.10;40.30;;;;;;5135334;27;19963;-66
2023/01/31 01:15:56;;;;;;;;;;;17.00;40.40;;;;;;5134064;27;20386;-66
2023/01/31 01:18:21;;;;;;;;;;;17.00;40.50;;;;;;5135012;27;20417;-68
2023/01/31 01:20:47;;;;;;;;;;;16.90;40.50;;;;;;5134041;27;19978;-66
2023/01/31 01:23:12;;;;;;;;;;;16.90;40.50;;;;;;5133746;27;20006;-67
2023/01/31 01:25:42;;;;;;;;;;;16.80;40.60;;;;;;5132954;27;20052;-67
2023/01/31 01:28:07;;;;;;;;;;;16.80;40.80;;;;;;5133595;27;20539;-65
2023/01/31 01:30:32;;;;;;;;;;;16.70;41.60;;;;;;5133533;27;19919;-67
2023/01/31 01:32:58;;;;;;;;;;;16.70;41.00;;;;;;5134820;27;19950;-68
2023/01/31 01:35:27;;;;;;;;;;;16.60;40.90;;;;;;5133689;27;19930;-66
2023/01/31 01:37:52;;;;;;;;;;;16.70;41.00;;;;;;5134713;27;20394;-66
2023/01/31 01:40:18;;;;;;;;;;;16.80;40.80;;;;;;5133252;27;19950;-66
2023/01/31 01:42:43;;;;;;;;;;;17.00;40.60;;;;;;5134621;27;20018;-67
2023/01/31 01:45:14;;;;;;;;;;;17.20;40.40;;;;;;5138058;27;20487;-65
2023/01/31 01:47:46;;;;;;;;;;;17.30;40.10;;;;;;5155155;27;19939;-66
2023/01/31 01:50:20;;;;;;;;;;;17.40;39.80;;;;;;5153978;27;19920;-67
2023/01/31 01:52:49;;;;;;;;;;;17.50;39.60;;;;;;5153859;27;19950;-66
2023/01/31 01:55:18;;;;;;;;;;;17.60;39.50;;;;;;5146317;27;20276;-66
2023/01/31 01:57:46;;;;;;;;;;;17.60;39.30;;;;;;5132999;27;20294;-66
2023/01/31 02:00:18;;;;;;;;;;;17.70;39.30;;;;;;5133351;27;19955;-66
2023/01/31 02:02:46;;;;;;;;;;;17.70;39.10;;;;;;5136798;27;19930;-66
2023/01/31 02:05:13;;;;;;;;;;;17.70;39.10;;;;;;5155051;27;19977;-67
2023/01/31 02:07:39;;;;;;;;;;;17.70;39.10;;;;;;5136221;27;19919;-66
2023/01/31 02:10:11;;;;;;;;;;;17.60;39.00;;;;;;5136581;27;19926;-66
2023/01/31 02:12:37;;;;;;;;;;;17.60;39.00;;;;;;5136391;27;20286;-66
2023/01/31 02:15:03;;;;;;;;;;;17.50;39.00;;;;;;5154718;27;19955;-66
2023/01/31 02:17:29;;;;;;;;;;;17.40;39.10;;;;;;5136341;27;20349;-66
2023/01/31 02:22:39;;;;;;;;;;;17.20;39.40;;;;;;5110298;27;20278;-67
2023/01/31 02:36:29;;;;;;;;;;;16.60;40.50;;;;;;5130737;27;19912;-66
2023/01/31 02:39:15;;;;;;;;;;;16.50;40.80;;;;;;5129436;28;19927;-66
2023/01/31 02:41:50;;;;;;;;;;;16.50;40.90;;;;;;5129481;28;19927;-66
2023/01/31 02:47:15;;;;;;;;;;;16.30;41.10;;;;;;5110309;27;19912;-66
2023/01/31 02:49:46;;;;;;;;;;;16.40;41.10;;;;;;5142943;27;19959;-68
2023/01/31 02:52:17;;;;;;;;;;;16.40;41.10;;;;;;5108859;28;19965;-66
2023/01/31 02:57:34;;;;;;;;;;;16.50;40.70;;;;;;5108943;28;19978;-66
2023/01/31 02:59:59;;;;;;;;;;;16.60;41.40;;;;;;5109028;28;20309;-66
2023/01/31 03:02:26;;;;;;;;;;;16.80;40.50;;;;;;5110030;28;19973;-66
2023/01/31 03:04:52;;;;;;;;;;;17.00;40.30;;;;;;5109770;28;19971;-66
2023/01/31 03:07:25;;;;;;;;;;;17.10;40.10;;;;;;5108984;28;19971;-66
2023/01/31 03:15:26;;;;;;;;;;;17.30;39.50;;;;;;5089743;28;19912;-66
2023/01/31 03:20:39;;;;;;;;;;;17.40;39.40;;;;;;5089878;28;20294;-67
2023/01/31 03:23:09;;;;;;;;;;;17.40;39.20;;;;;;5089915;28;19921;-67
2023/01/31 03:25:36;;;;;;;;;;;17.40;39.20;;;;;;5088504;28;20386;-67
2023/01/31 03:28:05;;;;;;;;;;;17.40;39.20;;;;;;5088433;28;20440;-66
2023/01/31 03:30:48;;;;;;;;;;;17.40;39.20;;;;;;5088482;28;19920;-66
2023/01/31 03:33:18;;;;;;;;;;;17.40;39.20;;;;;;5089917;28;20002;-67
2023/01/31 03:35:48;;;;;;;;;;;17.40;39.20;;;;;;5088305;28;20444;-67
2023/01/31 03:38:19;;;;;;;;;;;17.30;39.10;;;;;;5088300;28;19921;-67
2023/01/31 03:40:51;;;;;;;;;;;17.30;39.20;;;;;;5088448;28;19924;-66
2023/01/31 03:43:21;;;;;;;;;;;17.20;39.30;;;;;;5089419;28;19974;-66
2023/01/31 03:45:50;;;;;;;;;;;17.10;39.30;;;;;;5088429;28;20381;-66
2023/01/31 03:48:17;;;;;;;;;;;17.00;39.50;;;;;;5088170;28;20369;-66
2023/01/31 03:50:45;;;;;;;;;;;16.90;39.60;;;;;;5088343;28;19959;-67
2023/01/31 03:55:55;;;;;;;;;;;16.70;39.90;;;;;;5089841;28;19919;-66
2023/01/31 03:58:23;;;;;;;;;;;16.60;40.10;;;;;;5071827;28;19921;-66
2023/01/31 04:00:51;;;;;;;;;;;16.60;40.30;;;;;;5088690;28;19920;-67
2023/01/31 04:03:23;;;;;;;;;;;16.50;40.40;;;;;;5088813;28;19974;-68
2023/01/31 04:05:49;;;;;;;;;;;16.40;40.60;;;;;;5088468;28;20402;-67
2023/01/31 04:08:15;;;;;;;;;;;16.40;40.60;;;;;;5090007;28;19943;-65
2023/01/31 04:10:40;;;;;;;;;;;16.40;40.80;;;;;;5088373;28;19920;-66
2023/01/31 04:13:06;;;;;;;;;;;16.40;40.70;;;;;;5088682;28;19920;-66
2023/01/31 04:15:32;;;;;;;;;;;16.30;40.80;;;;;;5089590;28;19925;-66
2023/01/31 04:17:57;;;;;;;;;;;16.40;40.80;;;;;;5088566;28;19927;-68
2023/01/31 04:20:23;;;;;;;;;;;16.40;40.80;;;;;;5089691;28;20382;-65
2023/01/31 04:22:48;;;;;;;;;;;16.50;40.70;;;;;;5088430;28;20399;-66
2023/01/31 04:25:14;;;;;;;;;;;16.50;40.60;;;;;;5089381;28;19927;-66
2023/01/31 04:27:39;;;;;;;;;;;16.50;40.60;;;;;;5089551;28;19943;-65
2023/01/31 04:30:05;;;;;;;;;;;16.60;40.40;;;;;;5088454;28;19927;-67
2023/01/31 04:32:31;;;;;;;;;;;16.70;40.30;;;;;;5089130;28;19927;-67
2023/01/31 04:34:56;;;;;;;;;;;16.90;40.30;;;;;;5089154;28;20569;-65
2023/01/31 04:37:22;;;;;;;;;;;16.90;40.10;;;;;;5089122;28;19971;-65
2023/01/31 04:39:48;;;;;;;;;;;17.00;40.00;;;;;;5087812;28;20007;-68
2023/01/31 04:42:14;;;;;;;;;;;17.10;39.90;;;;;;5087692;28;19932;-67
2023/01/31 04:44:40;;;;;;;;;;;17.10;39.70;;;;;;5088085;28;19982;-67
2023/01/31 04:47:05;;;;;;;;;;;17.20;39.70;;;;;;5087853;28;20334;-65
2023/01/31 04:49:31;;;;;;;;;;;17.20;39.60;;;;;;5089363;28;19920;-65
2023/01/31 04:51:57;;;;;;;;;;;17.20;39.50;;;;;;5104494;28;19921;-65
2023/01/31 04:54:22;;;;;;;;;;;17.20;39.40;;;;;;5087441;28;19978;-67
2023/01/31 04:56:48;;;;;;;;;;;17.30;39.50;;;;;;5087370;28;19924;-66
2023/01/31 04:59:13;;;;;;;;;;;17.30;39.40;;;;;;5087463;28;19960;-67
2023/01/31 05:01:40;;;;;;;;;;;17.20;39.40;;;;;;5088893;28;19966;-66
2023/01/31 05:04:09;;;;;;;;;;;17.20;39.40;;;;;;5087585;28;20011;-65
2023/01/31 05:06:35;;;;;;;;;;;17.20;39.40;;;;;;5077160;28;20061;-67
2023/01/31 05:09:00;;;;;;;;;;;17.30;39.50;;;;;;5075068;28;19958;-68
2023/01/31 05:11:27;;;;;;;;;;;17.20;39.40;;;;;;5074062;28;19927;-65
2023/01/31 05:13:53;;;;;;;;;;;17.20;39.50;;;;;;5073607;28;19932;-66
2023/01/31 05:16:18;;;;;;;;;;;17.20;39.60;;;;;;5074911;28;19921;-66
2023/01/31 05:18:44;;;;;;;;;;;17.10;39.60;;;;;;5074798;28;19924;-65
2023/01/31 05:21:09;;;;;;;;;;;17.10;39.60;;;;;;5073621;28;20008;-68
2023/01/31 05:23:35;;;;;;;;;;;17.10;39.70;;;;;;5074882;28;20001;-65
2023/01/31 05:26:01;;;;;;;;;;;17.00;39.70;;;;;;5074829;28;19920;-65
2023/01/31 05:28:26;;;;;;;;;;;17.00;39.70;;;;;;5074558;28;19920;-66
2023/01/31 05:30:52;;;;;;;;;;;17.00;39.80;;;;;;5073766;28;20023;-67
2023/01/31 05:33:19;;;;;;;;;;;17.00;39.80;;;;;;5073621;28;19946;-66
2023/01/31 05:35:46;;;;;;;;;;;17.00;39.90;;;;;;5073329;28;19925;-67
2023/01/31 05:38:11;;;;;;;;;;;17.00;39.90;;;;;;5073287;28;19920;-66
2023/01/31 05:40:37;;;;;;;;;;;17.00;39.90;;;;;;5073273;28;19924;-65
2023/01/31 05:43:02;;;;;;;;;;;17.00;39.80;;;;;;5073480;28;19927;-66
2023/01/31 05:45:28;;;;;;;;;;;17.00;39.80;;;;;;5073558;28;19921;-67
2023/01/31 05:47:57;;;;;;;;;;;17.10;40.00;;;;;;5073455;28;19920;-66
2023/01/31 05:50:22;;;;;;;;;;;17.00;39.90;;;;;;5074264;28;20379;-66
2023/01/31 05:52:49;;;;;;;;;;;17.10;39.90;;;;;;5072935;28;20334;-66
2023/01/31 05:55:14;;;;;;;;;;;17.10;39.90;;;;;;5072628;28;19931;-65
2023/01/31 05:57:40;;;;;;;;;;;17.10;39.90;;;;;;5072693;28;19920;-66
2023/01/31 06:00:06;;;;;;;;;;;17.10;39.90;;;;;;5074037;28;20013;-68
2023/01/31 06:02:32;;;;;;;;;;;17.10;39.90;;;;;;5073116;28;19920;-66
2023/01/31 06:04:57;;;;;;;;;;;17.10;39.90;;;;;;5072664;28;20418;-65
2023/01/31 06:07:26;;;;;;;;;;;17.10;39.90;;;;;;5072980;28;20010;-67
2023/01/31 06:09:54;;;;;;;;;;;17.10;39.90;;;;;;5072955;28;20419;-66
2023/01/31 06:12:20;;;;;;;;;;;17.00;39.80;;;;;;5073849;28;19927;-65
2023/01/31 06:14:45;;;;;;;;;;;17.10;39.80;;;;;;5072371;28;19924;-67
2023/01/31 06:17:11;;;;;;;;;;;17.10;39.90;;;;;;5071695;28;19928;-65
2023/01/31 06:19:37;;;;;;;;;;;17.10;39.90;;;;;;5073573;28;19943;-66
2023/01/31 06:22:03;;;;;;;;;;;17.10;39.90;;;;;;5072428;28;19925;-68
2023/01/31 06:24:29;;;;;;;;;;;17.10;39.90;;;;;;5073993;28;19920;-67
2023/01/31 06:26:54;;;;;;;;;;;17.10;39.90;;;;;;5072423;28;19921;-65
2023/01/31 06:29:20;;;;;;;;;;;17.10;39.90;;;;;;5070967;28;19924;-66
2023/01/31 06:31:45;;;;;;;;;;;17.10;40.00;;;;;;5072404;28;20431;-65
2023/01/31 06:34:11;;;;;;;;;;;17.10;39.90;;;;;;5072156;28;20015;-67
2023/01/31 06:36:36;;;;;;;;;;;17.10;40.00;;;;;;5071041;28;20395;-67
2023/01/31 06:39:05;;;;;;;;;;;17.10;40.00;;;;;;5072796;28;20295;-68
2023/01/31 06:41:30;;;;;;;;;;;17.10;40.80;;;;;;5073172;28;20288;-65
2023/01/31 06:43:56;;;;;;;;;;;17.10;40.00;;;;;;5068508;28;19927;-65
2023/01/31 06:46:21;;;;;;;;;;;17.10;40.00;;;;;;5066486;28;20074;-66
2023/01/31 06:48:47;;;;;;;;;;;17.10;40.00;;;;;;5069414;28;19978;-65
2023/01/31 06:51:13;;;;;;;;;;;17.10;40.00;;;;;;5066957;28;20584;-64
2023/01/31 06:53:39;;;;;;;;;;;17.30;40.30;;;;;;5072546;28;20384;-65
2023/01/31 06:56:05;;;;;;;;;;;17.70;40.90;;;;;;5076066;28;19924;-64
2023/01/31 06:58:32;;;;;;;;;;;18.10;40.70;;;;;;5073495;28;19927;-67
2023/01/31 07:01:04;;;;;;;;;;;18.70;40.80;;;;;;5071849;28;20379;-66
2023/01/31 07:03:30;;;;;;;;;;;19.30;39.80;;;;;;5088547;28;19935;-66
2023/01/31 07:05:55;;;;;;;;;;;19.70;39.20;;;;;;5071983;28;20378;-66
2023/01/31 07:08:21;;;;;;;;;;;20.10;38.80;;;;;;5088987;28;19920;-64
2023/01/31 07:10:47;;;;;;;;;;;20.40;38.60;;;;;;5070320;28;19923;-64
2023/01/31 07:13:13;;;;;;;;;;;20.60;38.00;;;;;;5069408;28;19920;-65
2023/01/31 07:15:39;;;;;;;;;;;20.70;37.50;;;;;;5091172;28;19928;-67
2023/01/31 07:18:05;;;;;;;;;;;20.90;37.40;;;;;;5063266;28;19928;-71
2023/01/31 07:20:30;;;;;;;;;;;21.20;37.70;;;;;;5074774;28;19974;-67
2023/01/31 07:22:57;;;;;;;;;;;21.50;37.80;;;;;;5063590;28;19924;-70
2023/01/31 07:25:22;;;;;;;;;;;21.90;37.50;;;;;;5065715;28;19928;-69
2023/01/31 07:27:48;;;;;;;;;;;22.20;37.10;;;;;;5069221;28;20271;-68
2023/01/31 07:30:13;;;;;;;;;;;22.60;36.70;;;;;;5068233;28;19950;-68
2023/01/31 07:32:39;;;;;;;;;;;22.90;36.30;;;;;;5057800;28;19938;-69
2023/01/31 07:35:05;;;;;;;;;;;23.10;35.70;;;;;;5060356;28;19920;-69
2023/01/31 07:37:30;;;;;;;;;;;23.20;35.80;;;;;;5060792;28;19924;-68
2023/01/31 07:39:56;;;;;;;;;;;23.10;36.40;;;;;;5072799;28;19924;-68
2023/01/31 07:42:21;;;;;;;;;;;23.10;35.80;;;;;;5072876;28;20432;-72
2023/01/31 07:44:47;;;;;;;;;;;22.90;35.10;;;;;;5056484;28;19932;-74
2023/01/31 07:47:12;;;;;;;;;;;22.70;35.50;;;;;;5052782;28;19950;-69
2023/01/31 07:49:38;;;;;;;;;;;22.40;35.90;;;;;;5073111;28;20621;-73
2023/01/31 07:52:04;;;;;;;;;;;22.20;36.50;;;;;;5057910;28;19934;-74
2023/01/31 07:54:29;;;;;;;;;;;22.00;36.80;;;;;;5061444;28;19929;-72
2023/01/31 07:56:55;;;;;;;;;;;21.90;37.00;;;;;;5047678;28;19935;-71
2023/01/31 07:59:20;;;;;;;;;;;21.90;37.40;;;;;;5065231;28;19925;-69
2023/01/31 08:04:32;;;;;;;;;;;21.70;37.60;;;;;;5048229;28;19925;-76
2023/01/31 08:07:00;;;;;;;;;;;21.60;37.90;;;;;;5054988;28;20291;-75
2023/01/31 08:09:25;;;;;;;;;;;21.70;37.90;;;;;;5054689;28;19986;-75
2023/01/31 08:11:51;;;;;;;;;;;21.60;38.10;;;;;;5053869;28;20364;-75
2023/01/31 08:14:17;;;;;;;;;;;21.60;37.90;;;;;;5050710;28;19936;-78
2023/01/31 08:16:42;;;;;;;;;;;21.60;38.10;;;;;;5049906;28;19931;-72
2023/01/31 08:19:08;;;;;;;;;;;21.60;38.10;;;;;;5047009;28;20399;-72
2023/01/31 08:21:33;;;;;;;;;;;21.60;38.10;;;;;;5047212;28;19931;-76
2023/01/31 08:23:59;;;;;;;;;;;21.60;38.10;;;;;;5044294;28;19935;-69
2023/01/31 08:26:24;;;;;;;;;;;21.50;38.10;;;;;;5056103;28;19931;-73
2023/01/31 08:28:50;;;;;;;;;;;21.50;38.10;;;;;;5048884;28;19948;-71
2023/01/31 08:31:18;;;;;;;;;;;21.50;38.00;;;;;;5059531;28;19928;-68
2023/01/31 08:33:43;;;;;;;;;;;21.40;38.10;;;;;;5048025;28;19975;-68
2023/01/31 08:36:18;;;;;;;;;;;21.50;38.20;;;;;;5047822;28;20588;-67
2023/01/31 08:38:43;;;;;;;;;;;21.50;38.20;;;;;;5054558;28;19960;-67
2023/01/31 08:41:10;;;;;;;;;;;21.50;37.80;;;;;;5065668;28;20816;-67
2023/01/31 08:43:36;;;;;;;;;;;21.30;37.50;;;;;;5058292;28;19929;-68
2023/01/31 08:46:02;;;;;;;;;;;21.20;37.50;;;;;;5063787;28;20423;-66
2023/01/31 08:48:30;;;;;;;;;;;21.10;37.50;;;;;;5054821;28;19951;-68
2023/01/31 08:50:58;;;;;;;;;;;21.00;37.60;;;;;;5054583;28;20517;-76
2023/01/31 08:53:24;;;;;;;;;;;21.00;38.10;;;;;;5068929;28;20031;-69
2023/01/31 08:55:50;;;;;;;;;;;21.10;38.50;;;;;;5063544;28;19928;-73
2023/01/31 08:58:15;;;;;;;;;;;21.40;38.60;;;;;;5055797;28;19932;-72
2023/01/31 09:00:44;;;;;;;;;;;21.70;38.50;;;;;;5061081;28;20393;-67
2023/01/31 09:03:15;;;;;;;;;;;21.90;38.40;;;;;;5053812;28;20304;-75
2023/01/31 09:05:41;;;;;;;;;;;22.30;37.90;;;;;;5058497;28;20340;-77
2023/01/31 09:08:06;;;;;;;;;;;22.50;36.80;;;;;;5074300;28;19924;-77
2023/01/31 09:10:32;;;;;;;;;;;22.40;36.90;;;;;;5063818;28;20359;-76
2023/01/31 09:12:58;;;;;;;;;;;22.40;37.00;;;;;;5053117;28;20050;-73
2023/01/31 09:15:24;;;;;;;;;;;22.40;37.10;;;;;;5054334;28;19939;-76
2023/01/31 09:17:49;;;;;;;;;;;22.40;36.90;;;;;;5054586;28;19920;-69
2023/01/31 09:20:20;;;;;;;;;;;22.50;36.90;;;;;;5075313;28;19924;-72
2023/01/31 09:22:46;;;;;;;;;;;22.50;36.80;;;;;;5062892;28;19930;-70
2023/01/31 09:25:11;;;;;;;;;;;22.40;36.70;;;;;;5061054;28;20361;-69
2023/01/31 09:27:37;;;;;;;;;;;22.30;36.90;;;;;;5063403;28;19928;-72
2023/01/31 09:30:04;;;;;;;;;;;22.20;37.10;;;;;;5074970;28;19928;-71
2023/01/31 09:32:30;;;;;;;;;;;22.00;37.30;;;;;;5056790;28;19946;-71
2023/01/31 09:34:56;;;;;;;;;;;21.90;37.40;;;;;;5062872;28;19932;-71
2023/01/31 09:37:22;;;;;;;;;;;21.70;37.60;;;;;;5057913;28;20397;-72
2023/01/31 09:39:47;;;;;;;;;;;21.60;37.80;;;;;;5056072;28;19921;-72
2023/01/31 09:42:30;;;;;;;;;;;21.40;37.90;;;;;;5057309;28;19924;-72
2023/01/31 09:45:04;;;;;;;;;;;21.30;38.10;;;;;;5075959;28;20003;-71
2023/01/31 09:52:50;;;;;;;;;;;21.20;38.30;;;;;;5086470;27;1954604;-71
2023/01/31 09:55:17;;;;;;;;;;;21.40;38.20;;;;;;5132688;27;19923;-70
2023/01/31 09:57:57;;;;;;;;;;;21.50;38.30;;;;;;5146742;27;19923;-71
2023/01/31 10:00:27;;;;;;;;;;;21.80;38.30;;;;;;5144065;27;19994;-71
2023/01/31 10:05:39;;;;;;;;;;;22.30;37.10;;;;;;5114243;27;19927;-71
2023/01/31 10:08:10;;;;;;;;;;;22.60;36.80;;;;;;5110448;27;20375;-74
2023/01/31 10:10:43;;;;;;;;;;;23.00;36.60;;;;;;5107404;27;20260;-72
2023/01/31 10:13:16;;;;;;;;;;;23.40;36.10;;;;;;5140069;27;20379;-71
2023/01/31 10:15:43;;;;;;;;;;;23.70;35.70;;;;;;5110515;28;20275;-72
2023/01/31 10:18:12;;;;;;;;;;;24.00;35.30;;;;;;5104024;27;20010;-77
2023/01/31 10:20:40;;;;;;;;;;;24.20;34.90;;;;;;5109536;28;19920;-73
2023/01/31 10:23:10;;;;;;;;;;;24.20;34.50;;;;;;5108594;28;19966;-72
2023/01/31 10:25:37;;;;;;;;;;;24.10;34.60;;;;;;5108377;28;20163;-73
2023/01/31 10:28:05;;;;;;;;;;;24.00;34.70;;;;;;5104156;28;19976;-71
2023/01/31 10:30:37;;;;;;;;;;;23.60;35.10;;;;;;5137941;27;19934;-72
2023/01/31 10:33:11;;;;;;;;;;;23.40;35.40;;;;;;5105044;28;19928;-72
2023/01/31 10:35:39;;;;;;;;;;;23.30;35.80;;;;;;5110500;28;19968;-69
2023/01/31 10:38:16;;;;;;;;;;;23.10;36.00;;;;;;5114372;28;19968;-71
2023/01/31 10:40:43;;;;;;;;;;;23.00;36.30;;;;;;5103493;28;19927;-76
2023/01/31 10:45:46;;;;;;;;;;;22.60;36.80;;;;;;5092244;27;1862796;-74
2023/01/31 10:48:15;;;;;;;;;;;22.40;37.20;;;;;;5133009;27;20286;-75
2023/01/31 10:50:51;;;;;;;;;;;22.10;37.50;;;;;;5133586;27;19971;-70
2023/01/31 10:53:36;;;;;;;;;;;21.90;37.60;;;;;;5139669;27;19923;-69
2023/01/31 10:58:41;;;;;;;;;;;21.50;38.50;;;;;;5105539;27;1880441;-75
2023/01/31 11:01:10;;;;;;;;;;;21.30;38.60;;;;;;5137456;27;20428;-73
2023/01/31 11:03:36;;;;;;;;;;;21.20;38.80;;;;;;5133778;27;19923;-71
2023/01/31 11:06:04;;;;;;;;;;;21.10;39.00;;;;;;5135162;27;19926;-72
2023/01/31 11:08:50;;;;;;;;;;;21.00;39.20;;;;;;5138960;27;19923;-72
2023/01/31 11:11:17;;;;;;;;;;;20.90;39.30;;;;;;5133165;27;19927;-71
2023/01/31 11:14:01;;;;;;;;;;;20.80;39.70;;;;;;5140607;27;20142;-71
2023/01/31 11:16:30;;;;;;;;;;;20.60;39.80;;;;;;5144479;27;20113;-71
2023/01/31 11:18:56;;;;;;;;;;;20.50;40.30;;;;;;5137529;27;19927;-77
2023/01/31 11:21:24;;;;;;;;;;;20.40;40.20;;;;;;5132472;27;19960;-79
2023/01/31 11:23:50;;;;;;;;;;;20.30;40.30;;;;;;5138496;27;19922;-82
2023/01/31 11:26:33;;;;;;;;;;;20.30;40.50;;;;;;5140625;27;19915;-76
2023/01/31 11:28:59;;;;;;;;;;;20.30;41.00;;;;;;5136658;27;20207;-76
2023/01/31 11:31:30;;;;;;;;;;;20.40;40.50;;;;;;5136004;27;19931;-73
2023/01/31 11:36:41;;;;;;;;;;;20.50;40.60;;;;;;5068098;28;20392;-70
2023/01/31 11:39:26;;;;;;;;;;;20.60;40.90;;;;;;5071028;28;19970;-71
2023/01/31 11:41:52;;;;;;;;;;;20.80;40.70;;;;;;5086921;28;19924;-72
2023/01/31 11:44:19;;;;;;;;;;;21.00;40.40;;;;;;5075717;28;19931;-72
2023/01/31 11:49:28;;;;;;;;;;;21.30;41.10;;;;;;5078580;27;19925;-79
2023/01/31 11:51:54;;;;;;;;;;;21.40;40.80;;;;;;5072774;28;19932;-77
2023/01/31 11:54:25;;;;;;;;;;;21.40;40.80;;;;;;5068970;28;19935;-75
2023/01/31 11:56:51;;;;;;;;;;;21.40;41.20;;;;;;5068822;28;19925;-71
2023/01/31 11:59:20;;;;;;;;;;;21.60;40.60;;;;;;5073555;28;19991;-70
2023/01/31 12:01:47;;;;;;;;;;;21.80;40.10;;;;;;5078427;28;20268;-71
2023/01/31 12:04:15;;;;;;;;;;;21.90;39.80;;;;;;5069617;28;19921;-71
2023/01/31 12:06:41;;;;;;;;;;;22.00;39.70;;;;;;5071961;28;19931;-68
2023/01/31 12:09:23;;;;;;;;;;;22.10;39.60;;;;;;5068718;28;19924;-66
2023/01/31 12:14:40;;;;;;;;;;;21.90;40.00;;;;;;5082068;28;20399;-66
2023/01/31 12:17:14;;;;;;;;;;;21.80;40.20;;;;;;5083674;28;19924;-72
2023/01/31 12:19:59;;;;;;;;;;;21.70;40.30;;;;;;5084355;28;19976;-73
2023/01/31 12:22:45;;;;;;;;;;;21.60;40.50;;;;;;5080167;28;19924;-73
2023/01/31 12:28:03;;;;;;;;;;;21.30;40.90;;;;;;5092461;27;20040;-74
2023/01/31 12:33:28;;;;;;;;;;;21.00;41.20;;;;;;5087993;27;1869253;-76
2023/01/31 12:36:14;;;;;;;;;;;20.80;41.40;;;;;;5133021;27;19930;-71
2023/01/31 12:41:30;;;;;;;;;;;20.70;42.30;;;;;;5046886;28;20237;-72
2023/01/31 12:44:15;;;;;;;;;;;20.60;42.30;;;;;;5032472;28;19929;-70
2023/01/31 12:52:37;;;;;;;;;;;20.80;42.80;;;;;;5048689;28;19931;-69
2023/01/31 12:57:58;;;;;;;;;;;21.10;42.10;;;;;;5063808;28;19924;-76
2023/01/31 13:00:47;;;;;;;;;;;21.40;41.90;;;;;;5052896;28;19928;-71
2023/01/31 13:08:43;;;;;;;;;;;21.40;41.60;;;;;;5067859;27;20002;-70
2023/01/31 13:11:12;;;;;;;;;;;21.60;41.30;;;;;;5087976;28;19932;-70
2023/01/31 13:13:42;;;;;;;;;;;21.70;41.10;;;;;;5070965;28;19920;-67
2023/01/31 13:16:12;;;;;;;;;;;21.80;41.00;;;;;;5074040;28;20329;-67
2023/01/31 13:18:38;;;;;;;;;;;21.70;40.80;;;;;;5073196;28;19978;-71
2023/01/31 13:21:05;;;;;;;;;;;21.80;40.80;;;;;;5073220;28;19932;-67
2023/01/31 13:26:33;;;;;;;;;;;21.80;40.70;;;;;;5068777;27;19920;-67
2023/01/31 13:29:18;;;;;;;;;;;21.80;40.80;;;;;;5071465;28;20008;-70
2023/01/31 13:31:47;;;;;;;;;;;21.80;40.70;;;;;;5058736;28;19928;-65
2023/01/31 13:34:32;;;;;;;;;;;21.70;40.90;;;;;;5052630;28;20466;-71
2023/01/31 13:37:00;;;;;;;;;;;21.70;41.00;;;;;;5053430;28;19927;-67
2023/01/31 13:39:29;;;;;;;;;;;21.50;41.20;;;;;;5053407;28;19959;-72
2023/01/31 13:41:54;;;;;;;;;;;21.40;41.10;;;;;;5064505;28;19995;-68
2023/01/31 13:44:20;;;;;;;;;;;21.40;41.40;;;;;;5054286;28;19948;-70
2023/01/31 13:49:33;;;;;;;;;;;21.10;41.80;;;;;;5111420;27;19919;-74
2023/01/31 13:52:01;;;;;;;;;;;21.10;42.00;;;;;;5107678;27;20048;-69
2023/01/31 13:54:36;;;;;;;;;;;21.00;42.30;;;;;;5088975;28;19955;-70
2023/01/31 13:57:05;;;;;;;;;;;20.90;42.50;;;;;;5125659;27;19920;-69
2023/01/31 13:59:32;;;;;;;;;;;20.80;42.60;;;;;;5117801;27;19927;-70
2023/01/31 14:01:59;;;;;;;;;;;20.80;42.70;;;;;;5087892;28;19925;-71
2023/01/31 14:04:27;;;;;;;;;;;20.70;43.00;;;;;;5095587;27;19943;-72
2023/01/31 14:09:51;;;;;;;;;;;20.70;42.90;;;;;;5088609;27;1864987;-76
2023/01/31 14:14:56;;;;;;;;;;;20.90;42.60;;;;;;5096870;27;19944;-75
2023/01/31 14:23:06;;;;;;;;;;;21.10;42.10;;;;;;5099123;27;19916;-70
2023/01/31 14:25:40;;;;;;;;;;;21.20;41.90;;;;;;5083232;28;19927;-70
2023/01/31 14:28:09;;;;;;;;;;;21.30;42.40;;;;;;5108052;28;19966;-70
2023/01/31 14:30:37;;;;;;;;;;;21.30;41.30;;;;;;5078285;28;20370;-70
2023/01/31 14:33:06;;;;;;;;;;;21.20;41.30;;;;;;5091099;28;20427;-70
2023/01/31 14:49:19;;;;;;;;;;;21.30;41.40;;;;;;5100426;27;20737;-70
2023/01/31 14:52:05;;;;;;;;;;;21.30;41.40;;;;;;5098996;28;19927;-71
2023/01/31 15:00:00;;;;;;;;;;;21.30;41.40;;;;;;5102189;27;19920;-76
2023/01/31 15:02:44;;;;;;;;;;;21.20;41.50;;;;;;5083072;28;19919;-76
2023/01/31 15:05:11;;;;;;;;;;;21.20;41.40;;;;;;5084375;28;19969;-75
2023/01/31 15:07:56;;;;;;;;;;;21.10;41.30;;;;;;5085789;28;19920;-75
2023/01/31 15:10:42;;;;;;;;;;;21.10;41.30;;;;;;5082037;28;20082;-73
2023/01/31 15:13:27;;;;;;;;;;;21.00;41.50;;;;;;5086325;28;19963;-71
2023/01/31 15:15:53;;;;;;;;;;;21.00;41.50;;;;;;5086711;28;19920;-71
2023/01/31 15:18:23;;;;;;;;;;;21.00;41.60;;;;;;5082253;28;20090;-73
2023/01/31 15:20:50;;;;;;;;;;;21.00;41.60;;;;;;5078920;28;19951;-75
2023/01/31 15:23:19;;;;;;;;;;;20.90;41.60;;;;;;5083280;28;20374;-80
2023/01/31 15:25:46;;;;;;;;;;;20.80;41.70;;;;;;5081296;28;19934;-71
2023/01/31 15:28:14;;;;;;;;;;;20.80;41.60;;;;;;5082386;28;20452;-74
2023/01/31 15:30:40;;;;;;;;;;;20.80;41.70;;;;;;5078749;28;19924;-71
2023/01/31 15:33:27;;;;;;;;;;;20.80;41.80;;;;;;5083803;28;19924;-69
2023/01/31 15:38:55;;;;;;;;;;;20.60;42.00;;;;;;5095493;27;19916;-74
2023/01/31 15:41:24;;;;;;;;;;;20.50;42.20;;;;;;5083652;28;19927;-68
2023/01/31 15:43:52;;;;;;;;;;;20.40;42.30;;;;;;5082846;28;19924;-70
2023/01/31 15:46:34;;;;;;;;;;;20.30;42.60;;;;;;5082759;28;19946;-80
2023/01/31 15:49:00;;;;;;;;;;;20.20;42.90;;;;;;5082954;28;20266;-71
2023/01/31 15:51:26;;;;;;;;;;;20.10;43.10;;;;;;5067364;28;20003;-74
2023/01/31 15:54:00;;;;;;;;;;;20.00;43.10;;;;;;5085430;28;19959;-74
2023/01/31 15:56:25;;;;;;;;;;;19.90;43.20;;;;;;5085434;28;19943;-74
2023/01/31 15:58:57;;;;;;;;;;;19.80;43.40;;;;;;5084333;28;19920;-75
2023/01/31 16:01:24;;;;;;;;;;;19.70;43.40;;;;;;5067696;28;19966;-74
2023/01/31 16:03:52;;;;;;;;;;;19.60;43.50;;;;;;5066399;28;19924;-76
2023/01/31 16:06:21;;;;;;;;;;;19.60;43.50;;;;;;5086074;28;19974;-74
2023/01/31 16:08:50;;;;;;;;;;;19.50;43.60;;;;;;5085067;28;19960;-74
2023/01/31 16:11:16;;;;;;;;;;;19.50;43.50;;;;;;5091339;28;19970;-75
2023/01/31 16:13:41;;;;;;;;;;;19.50;43.50;;;;;;5077509;28;19964;-75
2023/01/31 16:16:09;;;;;;;;;;;19.50;43.40;;;;;;5096526;28;19965;-75
2023/01/31 16:18:38;;;;;;;;;;;19.50;43.30;;;;;;5086472;28;19924;-76